createdAt,value
2023-01-20T00:01:09.599Z,74.67
2023-01-20T00:03:37.836Z,68.93
2023-01-20T00:06:05.883Z,73.90
2023-01-20T00:08:34.157Z,70.17
2023-01-20T00:11:05.961Z,79.00
2023-01-20T00:13:35.976Z,69.47
2023-01-20T00:16:04.764Z,77.70
2023-01-20T00:18:33.413Z,69.50
2023-01-20T00:21:04.360Z,78.67
2023-01-20T00:23:32.647Z,86.10
2023-01-20T00:26:00.606Z,83.27
2023-01-20T00:28:28.585Z,81.77
2023-01-20T00:30:58.071Z,81.60
2023-01-20T00:33:26.053Z,80.47
2023-01-20T00:35:53.944Z,76.80
2023-01-20T00:38:21.811Z,84.67
2023-01-20T00:40:55.160Z,73.03
2023-01-20T00:43:23.093Z,71.83
2023-01-20T00:45:51.070Z,76.07
2023-01-20T00:48:20.413Z,73.23
2023-01-20T00:50:48.367Z,78.70
2023-01-20T00:53:16.362Z,82.37
2023-01-20T00:55:44.348Z,96.43
2023-01-20T00:58:12.288Z,78.40
2023-01-20T01:00:40.291Z,79.83
2023-01-20T01:03:08.319Z,81.73
2023-01-20T01:05:37.819Z,82.83
2023-01-20T01:08:06.488Z,83.50
2023-01-20T01:10:34.678Z,83.87
2023-01-20T01:13:03.253Z,80.43
2023-01-20T01:15:31.380Z,85.00
2023-01-20T01:18:00.544Z,75.20
2023-01-20T01:20:29.401Z,85.93
2023-01-20T01:22:58.706Z,80.83
2023-01-20T01:25:26.961Z,80.23
2023-01-20T01:27:54.904Z,76.47
2023-01-20T01:30:23.116Z,82.13
2023-01-20T01:32:51.033Z,80.93
2023-01-20T01:35:18.999Z,85.77
2023-01-20T01:37:47.045Z,75.80
2023-01-20T01:40:16.666Z,82.00
2023-01-20T01:42:44.617Z,76.17
2023-01-20T01:45:22.611Z,76.60
2023-01-20T01:47:54.930Z,83.37
2023-01-20T01:50:26.546Z,77.47
2023-01-20T01:52:57.622Z,79.03
2023-01-20T01:55:30.531Z,79.93
2023-01-20T01:58:00.725Z,74.90
2023-01-20T02:00:29.088Z,76.63
2023-01-20T02:02:58.500Z,69.47
2023-01-20T02:05:28.256Z,77.17
2023-01-20T02:07:59.050Z,79.13
2023-01-20T02:10:28.496Z,77.20
2023-01-20T02:12:56.689Z,73.57
2023-01-20T02:15:29.529Z,68.97
2023-01-20T02:18:21.509Z,82.97
2023-01-20T02:21:29.655Z,89.17
2023-01-20T02:24:31.721Z,85.77
2023-01-20T02:27:09.505Z,81.27
2023-01-20T02:30:09.557Z,81.50
2023-01-20T02:32:46.171Z,85.87
2023-01-20T02:35:20.806Z,78.90
2023-01-20T02:37:55.156Z,89.27
2023-01-20T02:40:31.484Z,85.97
2023-01-20T02:43:08.660Z,77.57
2023-01-20T02:45:43.596Z,90.83
2023-01-20T02:48:23.347Z,85.20
2023-01-20T02:50:56.700Z,104.43
2023-01-20T02:53:27.672Z,94.47
2023-01-20T02:55:56.494Z,85.17
2023-01-20T02:58:31.491Z,90.00
2023-01-20T03:01:03.882Z,94.40
2023-01-20T03:03:36.154Z,97.30
2023-01-20T03:06:07.886Z,90.77
2023-01-20T03:08:37.553Z,96.50
2023-01-20T03:11:07.772Z,86.20
2023-01-20T03:13:40.675Z,101.53
2023-01-20T03:16:11.215Z,96.47
2023-01-20T03:18:41.108Z,81.87
2023-01-20T03:21:10.543Z,91.17
2023-01-20T03:23:43.695Z,92.47
2023-01-20T03:26:13.771Z,91.60
2023-01-20T03:28:44.667Z,85.93
2023-01-20T03:31:18.644Z,102.33
2023-01-20T03:33:49.941Z,90.73
2023-01-20T03:36:19.360Z,84.03
2023-01-20T03:38:47.967Z,101.30
2023-01-20T03:41:21.849Z,85.77
2023-01-20T03:43:56.821Z,85.70
2023-01-20T03:46:31.861Z,88.67
2023-01-20T03:49:09.835Z,90.97
2023-01-20T03:51:45.905Z,89.63
2023-01-20T03:54:19.307Z,93.53
2023-01-20T03:56:54.491Z,94.93
2023-01-20T03:59:24.617Z,90.33
2023-01-20T04:01:53.917Z,84.90
2023-01-20T04:04:23.405Z,96.17
2023-01-20T04:06:52.519Z,94.60
2023-01-20T04:09:24.386Z,83.70
2023-01-20T04:11:52.944Z,98.37
2023-01-20T04:14:20.933Z,92.63
2023-01-20T04:16:54.524Z,91.50
2023-01-20T04:19:24.271Z,90.00
2023-01-20T04:21:59.131Z,83.87
2023-01-20T04:24:32.504Z,85.77
2023-01-20T04:27:00.419Z,86.00
2023-01-20T04:29:28.322Z,88.67
2023-01-20T04:32:00.549Z,84.40
2023-01-20T04:34:30.620Z,86.80
2023-01-20T04:36:58.521Z,82.90
2023-01-20T04:39:26.428Z,79.90
2023-01-20T04:41:54.424Z,72.20
2023-01-20T04:44:22.557Z,77.53
2023-01-20T04:46:50.574Z,91.03
2023-01-20T04:49:18.501Z,71.17
2023-01-20T04:51:47.752Z,84.13
2023-01-20T04:54:15.702Z,87.13
2023-01-20T04:56:44.144Z,80.47
2023-01-20T04:59:12.160Z,79.47
2023-01-20T05:01:40.278Z,97.03
2023-01-20T05:04:08.342Z,83.90
2023-01-20T05:06:36.344Z,102.23
2023-01-20T05:09:05.721Z,102.97
2023-01-20T05:11:33.617Z,94.60
2023-01-20T05:14:01.638Z,89.63
2023-01-20T05:16:31.979Z,81.67
2023-01-20T05:18:59.870Z,88.30
2023-01-20T05:21:28.133Z,90.33
2023-01-20T05:23:56.438Z,89.57
2023-01-20T05:26:26.863Z,83.23
2023-01-20T05:28:55.599Z,92.57
2023-01-20T05:31:23.611Z,87.93
2023-01-20T05:33:51.664Z,88.70
2023-01-20T05:36:19.582Z,83.93
2023-01-20T05:38:47.532Z,84.43
2023-01-20T05:41:15.485Z,77.23
2023-01-20T05:43:44.779Z,91.80
2023-01-20T05:46:12.770Z,87.90
2023-01-20T05:48:40.662Z,80.67
2023-01-20T05:51:08.572Z,79.60
2023-01-20T05:53:36.597Z,82.77
2023-01-20T05:56:06.819Z,89.93
2023-01-20T05:58:34.989Z,87.73
2023-01-20T06:01:07.611Z,91.30
2023-01-20T06:03:35.780Z,77.90
2023-01-20T06:06:04.640Z,85.70
2023-01-20T06:08:32.721Z,100.90
2023-01-20T06:11:00.761Z,79.43
2023-01-20T06:13:28.762Z,96.90
2023-01-20T06:15:57.771Z,94.77
2023-01-20T06:18:27.093Z,88.20
2023-01-20T06:20:58.621Z,84.93
2023-01-20T06:23:26.732Z,83.83
2023-01-20T06:26:00.260Z,85.83
2023-01-20T06:28:28.642Z,82.53
2023-01-20T06:31:04.329Z,80.43
2023-01-20T06:33:34.137Z,76.30
2023-01-20T06:36:02.879Z,81.77
2023-01-20T06:38:32.517Z,96.43
2023-01-20T06:41:01.305Z,99.50
2023-01-20T06:43:30.714Z,97.77
2023-01-20T06:46:02.487Z,98.77
2023-01-20T06:48:31.009Z,93.20
2023-01-20T06:51:04.059Z,98.53
2023-01-20T06:53:32.283Z,101.50
2023-01-20T06:56:01.474Z,112.50
2023-01-20T06:58:32.014Z,106.43
2023-01-20T07:01:06.176Z,103.77
2023-01-20T07:03:34.209Z,131.73
2023-01-20T07:06:06.604Z,174.30
2023-01-20T07:08:34.490Z,119.53
2023-01-20T07:11:02.421Z,100.13
2023-01-20T07:13:30.422Z,97.63
2023-01-20T07:15:58.405Z,84.73
2023-01-20T07:18:26.354Z,90.80
2023-01-20T07:20:55.447Z,82.23
2023-01-20T07:23:25.190Z,88.80
2023-01-20T07:25:59.101Z,89.43
2023-01-20T07:28:27.021Z,86.47
2023-01-20T07:30:54.974Z,78.50
2023-01-20T07:33:23.041Z,81.40
2023-01-20T07:35:54.842Z,83.83
2023-01-20T07:38:24.155Z,67.93
2023-01-20T07:40:52.065Z,81.93
2023-01-20T07:43:19.946Z,87.27
2023-01-20T07:45:47.862Z,100.70
2023-01-20T07:48:15.814Z,111.27
2023-01-20T07:50:44.104Z,89.93
2023-01-20T07:53:11.991Z,89.67
2023-01-20T07:55:41.250Z,95.13
2023-01-20T07:58:09.178Z,101.43
2023-01-20T08:00:37.124Z,86.07
2023-01-20T08:03:05.100Z,85.93
2023-01-20T08:05:33.552Z,86.50
2023-01-20T08:08:01.512Z,74.47
2023-01-20T08:10:29.519Z,94.00
2023-01-20T08:12:59.517Z,81.80
2023-01-20T08:15:27.437Z,86.37
2023-01-20T08:17:55.413Z,81.90
2023-01-20T08:20:23.524Z,93.90
2023-01-20T08:22:51.505Z,79.37
2023-01-20T08:25:19.433Z,76.83
2023-01-20T08:27:49.321Z,88.67
2023-01-20T08:30:19.378Z,91.50
2023-01-20T08:32:47.290Z,82.47
2023-01-20T08:35:15.510Z,87.50
2023-01-20T08:37:43.628Z,90.63
2023-01-20T08:40:12.594Z,82.80
2023-01-20T08:42:40.972Z,77.87
2023-01-20T08:45:10.263Z,74.80
2023-01-20T08:47:44.205Z,74.17
2023-01-20T08:50:13.899Z,72.63
2023-01-20T08:52:41.896Z,66.13
2023-01-20T08:55:10.675Z,67.60
2023-01-20T08:57:38.833Z,74.57
2023-01-20T09:00:09.162Z,71.83
2023-01-20T09:02:39.616Z,63.30
2023-01-20T09:05:09.570Z,65.63
2023-01-20T09:07:37.503Z,58.90
2023-01-20T09:10:06.444Z,57.70
2023-01-20T09:12:34.461Z,63.47
2023-01-20T09:15:07.461Z,63.20
2023-01-20T09:17:36.197Z,70.50
2023-01-20T09:20:06.182Z,69.37
2023-01-20T09:22:34.092Z,71.80
2023-01-20T09:25:02.519Z,70.07
2023-01-20T09:27:30.431Z,67.90
2023-01-20T09:29:58.402Z,61.60
2023-01-20T09:32:26.405Z,54.23
2023-01-20T09:34:54.344Z,54.23
2023-01-20T09:37:41.583Z,50.27
2023-01-20T09:40:32.265Z,58.33
2023-01-20T09:43:29.767Z,56.07
2023-01-20T09:46:02.285Z,49.30
2023-01-20T09:48:56.778Z,46.00
2023-01-20T09:51:50.144Z,54.50
2023-01-20T09:54:24.559Z,51.07
2023-01-20T09:56:55.714Z,54.43
2023-01-20T09:59:30.905Z,50.03
2023-01-20T10:02:02.994Z,53.67
2023-01-20T10:04:37.287Z,69.80
2023-01-20T10:07:12.372Z,61.03
2023-01-20T10:09:46.275Z,71.40
2023-01-20T10:12:18.967Z,68.27
2023-01-20T10:14:50.805Z,55.10
2023-01-20T10:17:24.181Z,59.43
2023-01-20T10:19:59.005Z,51.60
2023-01-20T10:22:33.171Z,53.27
2023-01-20T10:25:10.641Z,46.53
2023-01-20T10:27:43.418Z,51.90
2023-01-20T10:30:14.995Z,61.47
2023-01-20T10:32:49.733Z,50.33
2023-01-20T10:35:20.744Z,50.17
2023-01-20T10:37:48.916Z,48.60
2023-01-20T10:40:26.146Z,43.47
2023-01-20T10:42:58.495Z,48.03
2023-01-20T10:45:45.996Z,46.13
2023-01-20T10:48:26.431Z,48.47
2023-01-20T10:50:59.438Z,43.97
2023-01-20T10:53:47.155Z,47.83
2023-01-20T10:56:32.845Z,47.87
2023-01-20T10:59:03.951Z,50.77
2023-01-20T11:01:31.887Z,47.30
2023-01-20T11:03:59.870Z,50.57
2023-01-20T11:06:28.584Z,46.03
2023-01-20T11:08:57.492Z,44.13
2023-01-20T11:11:27.108Z,42.20
2023-01-20T11:13:55.439Z,40.60
2023-01-20T11:16:25.551Z,39.30
2023-01-20T11:18:59.670Z,44.57
2023-01-20T11:21:30.177Z,44.13
2023-01-20T11:23:59.474Z,48.13
2023-01-20T11:26:31.739Z,47.57
2023-01-20T11:29:02.047Z,40.37
2023-01-20T11:31:42.288Z,43.40
2023-01-20T11:34:23.333Z,39.20
2023-01-20T11:36:52.311Z,39.23
2023-01-20T11:39:28.680Z,42.30
2023-01-20T11:42:15.772Z,43.50
2023-01-20T11:44:45.025Z,39.90
2023-01-20T11:47:23.513Z,41.93
2023-01-20T11:50:26.351Z,46.80
2023-01-20T11:52:54.296Z,37.47
2023-01-20T11:55:24.147Z,39.33
2023-01-20T11:57:56.828Z,49.90
2023-01-20T12:00:43.544Z,49.90
2023-01-20T12:03:53.146Z,58.33
2023-01-20T12:06:24.613Z,60.30
2023-01-20T12:08:57.238Z,58.93
2023-01-20T12:11:29.444Z,47.93
2023-01-20T12:14:23.130Z,44.13
2023-01-20T12:16:59.004Z,42.37
2023-01-20T12:19:34.654Z,35.17
2023-01-20T12:22:10.124Z,40.03
2023-01-20T12:25:05.054Z,38.00
2023-01-20T12:27:33.701Z,39.70
2023-01-20T12:30:09.165Z,35.77
2023-01-20T12:32:40.211Z,35.70
2023-01-20T12:35:14.318Z,34.13
2023-01-20T12:37:48.247Z,31.27
2023-01-20T12:40:27.248Z,32.93
2023-01-20T12:43:27.196Z,38.53
2023-01-20T12:46:09.002Z,39.43
2023-01-20T12:48:49.503Z,40.20
2023-01-20T12:51:29.048Z,39.03
2023-01-20T12:54:17.805Z,32.47
2023-01-20T12:56:53.624Z,52.90
2023-01-20T12:59:35.608Z,47.93
2023-01-20T13:02:37.944Z,51.53
2023-01-20T13:05:27.298Z,35.87
2023-01-20T13:08:08.633Z,34.80
2023-01-20T13:10:54.434Z,32.37
2023-01-20T13:13:34.673Z,34.17
2023-01-20T13:16:13.974Z,33.83
2023-01-20T13:19:03.273Z,35.30
2023-01-20T13:21:32.499Z,42.57
2023-01-20T13:24:02.595Z,48.17
2023-01-20T13:26:32.097Z,42.13
2023-01-20T13:29:02.384Z,39.27
2023-01-20T13:31:44.898Z,37.80
2023-01-20T13:34:35.750Z,41.97
2023-01-20T13:37:23.850Z,41.57
2023-01-20T13:39:54.277Z,47.23
2023-01-20T13:42:48.427Z,44.50
2023-01-20T13:45:24.649Z,52.40
2023-01-20T13:47:57.417Z,42.90
2023-01-20T13:50:30.694Z,37.73
2023-01-20T13:53:28.161Z,40.10
2023-01-20T13:56:26.735Z,40.80
2023-01-20T13:58:55.192Z,40.27
2023-01-20T14:01:23.340Z,41.10
2023-01-20T14:04:03.712Z,31.87
2023-01-20T14:06:35.672Z,38.90
2023-01-20T14:09:08.494Z,37.63
2023-01-20T14:11:49.310Z,38.80
2023-01-20T14:14:20.322Z,45.30
2023-01-20T14:16:48.432Z,52.20
2023-01-20T14:19:23.345Z,47.97
2023-01-20T14:21:56.017Z,45.47
2023-01-20T14:24:29.314Z,47.60
2023-01-20T14:27:07.851Z,45.27
2023-01-20T14:29:35.766Z,44.07
2023-01-20T14:32:09.395Z,45.47
2023-01-20T14:34:37.529Z,44.20
2023-01-20T14:37:28.290Z,41.47
2023-01-20T14:39:58.783Z,32.70
2023-01-20T14:42:28.412Z,32.17
2023-01-20T14:44:57.969Z,29.93
2023-01-20T14:47:28.201Z,30.03
2023-01-20T14:49:56.859Z,29.30
2023-01-20T14:52:29.542Z,23.17
2023-01-20T14:54:58.559Z,22.57
2023-01-20T14:57:29.328Z,29.47
2023-01-20T15:00:04.359Z,23.93
2023-01-20T15:02:34.897Z,25.33
2023-01-20T15:05:03.142Z,22.23
2023-01-20T15:07:32.476Z,27.60
2023-01-20T15:10:03.192Z,28.93
2023-01-20T15:12:42.495Z,24.50
2023-01-20T15:15:30.875Z,22.70
2023-01-20T15:18:14.580Z,27.27
2023-01-20T15:20:44.496Z,26.13
2023-01-20T15:23:20.031Z,32.97
2023-01-20T15:25:48.349Z,28.40
2023-01-20T15:28:26.785Z,32.53
2023-01-20T15:30:56.469Z,32.33
2023-01-20T15:33:25.260Z,61.03
2023-01-20T15:35:56.226Z,42.00
2023-01-20T15:38:25.953Z,32.77
2023-01-20T15:40:54.108Z,30.73
2023-01-20T15:43:22.145Z,30.33
2023-01-20T15:45:50.208Z,37.30
2023-01-20T15:48:20.880Z,30.50
2023-01-20T15:50:49.665Z,35.73
2023-01-20T15:53:17.797Z,37.67
2023-01-20T15:55:52.388Z,44.70
2023-01-20T15:58:26.379Z,45.90
2023-01-20T16:00:55.364Z,44.83
2023-01-20T16:03:23.802Z,34.60
2023-01-20T16:05:52.818Z,37.37
2023-01-20T16:08:23.378Z,33.83
2023-01-20T16:10:52.657Z,33.93
2023-01-20T16:13:20.565Z,39.07
2023-01-20T16:15:48.619Z,35.47
2023-01-20T16:18:18.449Z,37.17
2023-01-20T16:20:49.637Z,37.93
2023-01-20T16:23:17.652Z,38.97
2023-01-20T16:25:46.238Z,40.07
2023-01-20T16:28:18.476Z,43.70
2023-01-20T16:30:46.703Z,50.10
2023-01-20T16:33:19.965Z,51.03
2023-01-20T16:35:48.691Z,42.77
2023-01-20T16:38:19.218Z,47.00
2023-01-20T16:40:50.101Z,40.20
2023-01-20T16:43:20.557Z,35.93
2023-01-20T16:45:54.226Z,39.40
2023-01-20T16:48:23.057Z,38.33
2023-01-20T16:50:51.456Z,36.27
2023-01-20T16:53:20.844Z,33.63
2023-01-20T16:55:50.151Z,32.10
2023-01-20T16:58:19.448Z,30.60
2023-01-20T17:00:47.408Z,40.77
2023-01-20T17:03:15.331Z,30.97
2023-01-20T17:05:43.229Z,41.97
2023-01-20T17:08:11.452Z,30.97
2023-01-20T17:10:39.390Z,29.93
2023-01-20T17:13:07.324Z,27.33
2023-01-20T17:15:40.450Z,26.53
2023-01-20T17:18:10.202Z,36.87
2023-01-20T17:20:38.177Z,31.57
2023-01-20T17:23:06.156Z,31.53
2023-01-20T17:25:34.210Z,24.03
2023-01-20T17:28:02.159Z,26.33
2023-01-20T17:30:30.246Z,24.30
2023-01-20T17:32:59.564Z,18.93
2023-01-20T17:35:27.899Z,23.93
2023-01-20T17:37:55.874Z,25.63
2023-01-20T17:40:23.777Z,27.90
2023-01-20T17:42:53.836Z,22.33
2023-01-20T17:45:21.796Z,24.57
2023-01-20T17:47:51.532Z,27.53
2023-01-20T17:50:21.097Z,26.27
2023-01-20T17:52:49.472Z,26.97
2023-01-20T17:55:17.789Z,26.37
2023-01-20T17:57:46.021Z,29.33
2023-01-20T18:00:14.979Z,44.70
2023-01-20T18:02:43.182Z,61.47
2023-01-20T18:05:11.153Z,54.07
2023-01-20T18:07:40.413Z,33.27
2023-01-20T18:10:08.799Z,27.10
2023-01-20T18:12:36.721Z,29.70
2023-01-20T18:15:05.183Z,23.13
2023-01-20T18:17:34.360Z,24.20
2023-01-20T18:20:02.514Z,22.17
2023-01-20T18:22:30.474Z,23.23
2023-01-20T18:24:59.743Z,23.83
2023-01-20T18:27:27.783Z,24.73
2023-01-20T18:29:55.779Z,24.50
2023-01-20T18:32:23.674Z,27.63
2023-01-20T18:34:51.621Z,25.60
2023-01-20T18:37:19.578Z,26.23
2023-01-20T18:39:47.494Z,29.00
2023-01-20T18:42:16.768Z,23.73
2023-01-20T18:44:44.742Z,27.87
2023-01-20T18:47:12.675Z,24.07
2023-01-20T18:49:40.552Z,30.67
2023-01-20T18:52:08.536Z,24.23
2023-01-20T18:54:38.455Z,24.20
2023-01-20T18:57:08.779Z,23.50
2023-01-20T18:59:39.349Z,22.73
2023-01-20T19:02:10.027Z,27.90
2023-01-20T19:04:37.986Z,19.20
2023-01-20T19:07:06.624Z,18.17
2023-01-20T19:09:34.675Z,22.00
2023-01-20T19:12:02.639Z,23.63
2023-01-20T19:14:30.670Z,27.53
2023-01-20T19:17:00.118Z,23.93
2023-01-20T19:19:28.193Z,26.63
2023-01-20T19:21:56.388Z,22.47
2023-01-20T19:24:28.907Z,34.07
2023-01-20T19:26:57.995Z,42.80
2023-01-20T19:29:28.337Z,36.53
2023-01-20T19:31:57.702Z,26.93
2023-01-20T19:34:28.018Z,25.30
2023-01-20T19:36:56.885Z,23.33
2023-01-20T19:39:24.980Z,21.77
2023-01-20T19:41:53.258Z,22.50
2023-01-20T19:44:21.478Z,23.23
2023-01-20T19:46:49.562Z,26.67
2023-01-20T19:49:17.655Z,26.17
2023-01-20T19:51:47.080Z,29.13
2023-01-20T19:54:15.266Z,25.33
2023-01-20T19:56:43.248Z,25.70
2023-01-20T19:59:13.198Z,63.07
2023-01-20T20:01:45.297Z,35.33
2023-01-20T20:04:14.087Z,27.00
2023-01-20T20:06:47.771Z,24.33
2023-01-20T20:09:19.160Z,22.13
2023-01-20T20:11:47.773Z,21.40
2023-01-20T20:14:18.364Z,22.17
2023-01-20T20:16:47.198Z,25.90
2023-01-20T20:19:17.962Z,23.13
2023-01-20T20:21:46.558Z,22.37
2023-01-20T20:24:15.786Z,22.43
2023-01-20T20:26:46.674Z,24.10
2023-01-20T20:29:16.437Z,25.10
2023-01-20T20:31:44.480Z,20.73
2023-01-20T20:34:14.728Z,17.20
2023-01-20T20:36:43.116Z,21.27
2023-01-20T20:39:14.964Z,23.53
2023-01-20T20:41:44.982Z,20.13
2023-01-20T20:44:13.383Z,20.83
2023-01-20T20:46:41.459Z,28.40
2023-01-20T20:49:12.512Z,20.97
2023-01-20T20:51:44.344Z,18.27
2023-01-20T20:54:16.740Z,19.93
2023-01-20T20:56:46.381Z,16.87
2023-01-20T20:59:14.438Z,17.83
2023-01-20T21:01:42.504Z,23.10
2023-01-20T21:04:11.509Z,20.20
2023-01-20T21:06:39.448Z,17.80
2023-01-20T21:09:07.476Z,18.90
2023-01-20T21:11:37.899Z,18.00
2023-01-20T21:14:08.349Z,19.53
2023-01-20T21:16:36.470Z,22.43
2023-01-20T21:19:05.147Z,20.60
2023-01-20T21:21:33.426Z,18.80
2023-01-20T21:24:01.939Z,16.57
2023-01-20T21:26:31.015Z,15.40
2023-01-20T21:29:01.932Z,18.43
2023-01-20T21:31:32.088Z,18.60
2023-01-20T21:34:00.975Z,15.43
2023-01-20T21:36:31.108Z,16.77
2023-01-20T21:38:59.695Z,11.40
2023-01-20T21:41:27.628Z,9.90
2023-01-20T21:44:12.996Z,10.53
2023-01-20T21:46:42.312Z,11.70
2023-01-20T21:49:27.735Z,18.80
2023-01-20T21:52:13.440Z,15.07
2023-01-20T21:54:41.720Z,11.93
2023-01-20T21:57:10.150Z,10.93
2023-01-20T21:59:38.382Z,14.17
2023-01-20T22:02:08.526Z,11.00
2023-01-20T22:04:36.507Z,14.07
2023-01-20T22:07:04.456Z,11.57
2023-01-20T22:09:32.440Z,14.83
2023-01-20T22:12:00.395Z,12.40
2023-01-20T22:14:28.422Z,10.97
2023-01-20T22:16:56.333Z,11.37
2023-01-20T22:19:25.956Z,10.63
2023-01-20T22:21:53.849Z,10.83
2023-01-20T22:24:21.745Z,10.97
2023-01-20T22:26:50.285Z,12.10
2023-01-20T22:29:18.970Z,12.03
2023-01-20T22:31:47.507Z,12.93
2023-01-20T22:34:15.460Z,14.43
2023-01-20T22:36:45.003Z,13.97
2023-01-20T22:39:14.072Z,15.93
2023-01-20T22:41:42.632Z,18.77
2023-01-20T22:44:10.622Z,17.00
2023-01-20T22:46:38.561Z,16.80
2023-01-20T22:49:06.620Z,15.10
2023-01-20T22:51:34.632Z,14.90
2023-01-20T22:54:04.163Z,16.67
2023-01-20T22:56:33.791Z,12.20
2023-01-20T22:59:01.821Z,15.50
2023-01-20T23:01:31.979Z,14.60
2023-01-20T23:04:01.667Z,17.83
2023-01-20T23:06:32.565Z,17.17
2023-01-20T23:09:01.231Z,18.97
2023-01-20T23:11:31.018Z,19.43
2023-01-20T23:13:59.256Z,23.60
2023-01-20T23:16:27.228Z,23.60
2023-01-20T23:18:55.232Z,19.87
2023-01-20T23:21:24.393Z,19.43
2023-01-20T23:23:54.695Z,24.60
2023-01-20T23:26:24.752Z,21.90
2023-01-20T23:28:55.382Z,19.27
2023-01-20T23:31:25.271Z,27.80
2023-01-20T23:33:54.662Z,23.77
2023-01-20T23:36:24.479Z,27.00
2023-01-20T23:38:54.415Z,25.90
2023-01-20T23:41:22.430Z,31.63
2023-01-20T23:43:50.401Z,22.90
2023-01-20T23:46:19.843Z,20.13
2023-01-20T23:48:47.975Z,31.00
2023-01-20T23:51:16.255Z,27.97
2023-01-20T23:53:44.606Z,31.87
2023-01-20T23:56:14.836Z,32.00
2023-01-20T23:58:43.239Z,24.47
